sensor_id;sensor_type;location;lat;lon;timestamp;pressure;altitude;pressure_sealevel;temperature;humidity
3844;BME280;1937;51.444;6.484;2023-02-12T00:01:38;67937.72;;;8.65;97.87
3844;BME280;1937;51.444;6.484;2023-02-12T00:04:06;67971.81;;;8.52;98.38
3844;BME280;1937;51.444;6.484;2023-02-12T00:06:35;67964.41;;;8.61;98.21
3844;BME280;1937;51.444;6.484;2023-02-12T00:09:05;67949.81;;;8.59;97.89
3844;BME280;1937;51.444;6.484;2023-02-12T00:11:33;67936.47;;;8.52;98.17
3844;BME280;1937;51.444;6.484;2023-02-12T00:14:03;67977.88;;;8.73;97.13
3844;BME280;1937;51.444;6.484;2023-02-12T00:16:32;67969.03;;;8.72;97.18
3844;BME280;1937;51.444;6.484;2023-02-12T00:19:00;67950.56;;;8.65;97.31
3844;BME280;1937;51.444;6.484;2023-02-12T00:21:28;67956.78;;;8.54;97.90
3844;BME280;1937;51.444;6.484;2023-02-12T00:23:58;67908.69;;;8.48;97.44
3844;BME280;1937;51.444;6.484;2023-02-12T00:26:26;67943.59;;;8.52;97.57
3844;BME280;1937;51.444;6.484;2023-02-12T00:28:55;67929.00;;;8.50;97.66
3844;BME280;1937;51.444;6.484;2023-02-12T00:31:27;67963.38;;;8.65;97.58
3844;BME280;1937;51.444;6.484;2023-02-12T00:33:56;67938.38;;;8.58;97.66
3844;BME280;1937;51.444;6.484;2023-02-12T00:36:28;67940.38;;;8.58;97.01
3844;BME280;1937;51.444;6.484;2023-02-12T00:38:58;67929.19;;;8.66;97.00
3844;BME280;1937;51.444;6.484;2023-02-12T00:41:28;67941.22;;;8.68;96.57
3844;BME280;1937;51.444;6.484;2023-02-12T00:43:57;67956.19;;;8.72;96.54
3844;BME280;1937;51.444;6.484;2023-02-12T00:46:26;67951.50;;;8.68;96.93
3844;BME280;1937;51.444;6.484;2023-02-12T00:48:55;67939.63;;;8.71;96.11
3844;BME280;1937;51.444;6.484;2023-02-12T00:51:23;67905.25;;;8.56;97.45
3844;BME280;1937;51.444;6.484;2023-02-12T00:53:51;67922.25;;;8.53;97.72
3844;BME280;1937;51.444;6.484;2023-02-12T00:56:19;67886.84;;;8.43;97.50
3844;BME280;1937;51.444;6.484;2023-02-12T00:58:49;67878.22;;;8.40;98.02
3844;BME280;1937;51.444;6.484;2023-02-12T01:01:17;67879.72;;;8.26;98.32
3844;BME280;1937;51.444;6.484;2023-02-12T01:03:47;67903.94;;;8.33;98.24
3844;BME280;1937;51.444;6.484;2023-02-12T01:06:15;67956.47;;;8.45;98.99
3844;BME280;1937;51.444;6.484;2023-02-12T01:08:44;67941.38;;;8.54;97.52
3844;BME280;1937;51.444;6.484;2023-02-12T01:11:13;67949.72;;;8.66;96.38
3844;BME280;1937;51.444;6.484;2023-02-12T01:13:41;67942.19;;;8.71;96.37
3844;BME280;1937;51.444;6.484;2023-02-12T01:16:13;67899.38;;;8.51;96.94
3844;BME280;1937;51.444;6.484;2023-02-12T01:18:41;67918.94;;;8.48;97.18
3844;BME280;1937;51.444;6.484;2023-02-12T01:21:14;67896.31;;;8.44;96.92
3844;BME280;1937;51.444;6.484;2023-02-12T01:23:44;67950.09;;;8.51;97.27
3844;BME280;1937;51.444;6.484;2023-02-12T01:26:14;67903.13;;;8.52;96.42
3844;BME280;1937;51.444;6.484;2023-02-12T01:28:47;67887.59;;;8.48;97.56
3844;BME280;1937;51.444;6.484;2023-02-12T01:31:18;67879.38;;;8.41;96.75
3844;BME280;1937;51.444;6.484;2023-02-12T01:33:50;67885.59;;;8.48;96.57
3844;BME280;1937;51.444;6.484;2023-02-12T01:36:20;67880.97;;;8.55;96.50
3844;BME280;1937;51.444;6.484;2023-02-12T01:38:49;67894.25;;;8.51;96.00
3844;BME280;1937;51.444;6.484;2023-02-12T01:41:20;67862.53;;;8.31;96.40
3844;BME280;1937;51.444;6.484;2023-02-12T01:44:06;67894.06;;;8.36;96.64
3844;BME280;1937;51.444;6.484;2023-02-12T01:46:34;67870.97;;;8.36;96.85
3844;BME280;1937;51.444;6.484;2023-02-12T01:49:04;67871.78;;;8.34;96.87
3844;BME280;1937;51.444;6.484;2023-02-12T01:51:36;67834.59;;;8.22;96.86
3844;BME280;1937;51.444;6.484;2023-02-12T01:54:06;67877.91;;;8.31;96.81
3844;BME280;1937;51.444;6.484;2023-02-12T01:56:36;67905.91;;;8.50;95.98
3844;BME280;1937;51.444;6.484;2023-02-12T01:59:05;67885.78;;;8.35;97.07
3844;BME280;1937;51.444;6.484;2023-02-12T02:01:35;67889.72;;;8.52;96.43
3844;BME280;1937;51.444;6.484;2023-02-12T02:04:07;67826.84;;;8.29;96.65
3844;BME280;1937;51.444;6.484;2023-02-12T02:06:41;67881.00;;;8.38;96.79
3844;BME280;1937;51.444;6.484;2023-02-12T02:09:12;67882.38;;;8.54;95.67
3844;BME280;1937;51.444;6.484;2023-02-12T02:11:42;67819.94;;;8.27;96.29
3844;BME280;1937;51.444;6.484;2023-02-12T02:14:28;67841.50;;;8.41;96.21
3844;BME280;1937;51.444;6.484;2023-02-12T02:17:09;67884.66;;;8.45;95.88
3844;BME280;1937;51.444;6.484;2023-02-12T02:22:49;67851.75;;;8.41;96.07
3844;BME280;1937;51.444;6.484;2023-02-12T02:25:47;67821.00;;;8.23;96.01
3844;BME280;1937;51.444;6.484;2023-02-12T02:28:38;67790.16;;;8.12;96.26
3844;BME280;1937;51.444;6.484;2023-02-12T02:31:19;67826.41;;;8.15;97.34
3844;BME280;1937;51.444;6.484;2023-02-12T02:33:57;67803.28;;;8.04;97.03
3844;BME280;1937;51.444;6.484;2023-02-12T02:36:36;67828.16;;;8.34;96.32
3844;BME280;1937;51.444;6.484;2023-02-12T02:39:12;67831.31;;;8.17;95.80
3844;BME280;1937;51.444;6.484;2023-02-12T02:41:47;67777.50;;;7.99;95.82
3844;BME280;1937;51.444;6.484;2023-02-12T02:44:20;67736.97;;;7.77;97.12
3844;BME280;1937;51.444;6.484;2023-02-12T02:46:52;67751.81;;;7.88;97.69
3844;BME280;1937;51.444;6.484;2023-02-12T02:49:26;67771.94;;;7.86;97.58
3844;BME280;1937;51.444;6.484;2023-02-12T02:51:58;67817.41;;;7.92;98.06
3844;BME280;1937;51.444;6.484;2023-02-12T02:54:31;67841.16;;;7.86;98.39
3844;BME280;1937;51.444;6.484;2023-02-12T02:57:06;67812.16;;;7.87;97.98
3844;BME280;1937;51.444;6.484;2023-02-12T02:59:39;67830.22;;;7.92;98.33
3844;BME280;1937;51.444;6.484;2023-02-12T03:02:13;67812.16;;;7.87;97.64
3844;BME280;1937;51.444;6.484;2023-02-12T03:04:46;67819.25;;;7.87;98.67
3844;BME280;1937;51.444;6.484;2023-02-12T03:07:22;67826.22;;;7.99;97.66
3844;BME280;1937;51.444;6.484;2023-02-12T03:09:56;67787.84;;;7.93;96.97
3844;BME280;1937;51.444;6.484;2023-02-12T03:12:31;67750.16;;;7.80;97.11
3844;BME280;1937;51.444;6.484;2023-02-12T03:15:05;67753.50;;;7.78;98.06
3844;BME280;1937;51.444;6.484;2023-02-12T03:17:41;67753.50;;;7.78;98.31
3844;BME280;1937;51.444;6.484;2023-02-12T03:20:15;67772.84;;;7.77;97.31
3844;BME280;1937;51.444;6.484;2023-02-12T03:22:47;67821.75;;;7.75;97.76
3844;BME280;1937;51.444;6.484;2023-02-12T03:25:22;67787.25;;;7.74;97.20
3844;BME280;1937;51.444;6.484;2023-02-12T03:27:58;67803.94;;;7.80;97.28
3844;BME280;1937;51.444;6.484;2023-02-12T03:30:34;67775.19;;;7.79;97.51
3844;BME280;1937;51.444;6.484;2023-02-12T03:33:11;67725.19;;;7.74;97.12
3844;BME280;1937;51.444;6.484;2023-02-12T03:35:48;67792.66;;;7.83;97.12
3844;BME280;1937;51.444;6.484;2023-02-12T03:38:25;67778.69;;;7.82;97.77
3844;BME280;1937;51.444;6.484;2023-02-12T03:41:02;67728.16;;;7.59;97.23
3844;BME280;1937;51.444;6.484;2023-02-12T03:43:36;67762.63;;;7.60;97.74
3844;BME280;1937;51.444;6.484;2023-02-12T03:46:13;67763.63;;;7.74;97.45
3844;BME280;1937;51.444;6.484;2023-02-12T03:48:50;67814.72;;;7.87;97.83
3844;BME280;1937;51.444;6.484;2023-02-12T03:51:26;67806.88;;;7.82;97.29
3844;BME280;1937;51.444;6.484;2023-02-12T03:53:56;67729.00;;;7.68;97.26
3844;BME280;1937;51.444;6.484;2023-02-12T03:56:28;67784.97;;;7.83;97.01
3844;BME280;1937;51.444;6.484;2023-02-12T03:58:59;67770.13;;;7.73;97.29
3844;BME280;1937;51.444;6.484;2023-02-12T04:01:27;67780.69;;;7.82;96.70
3844;BME280;1937;51.444;6.484;2023-02-12T04:03:57;67822.53;;;7.92;96.33
3844;BME280;1937;51.444;6.484;2023-02-12T04:06:28;67813.59;;;7.97;95.84
3844;BME280;1937;51.444;6.484;2023-02-12T04:09:00;67784.25;;;7.96;96.28
3844;BME280;1937;51.444;6.484;2023-02-12T04:11:33;67770.63;;;7.98;96.21
3844;BME280;1937;51.444;6.484;2023-02-12T04:14:13;67778.81;;;8.05;95.78
3844;BME280;1937;51.444;6.484;2023-02-12T04:16:51;67769.44;;;7.97;95.05
3844;BME280;1937;51.444;6.484;2023-02-12T04:19:28;67764.03;;;8.05;95.42
3844;BME280;1937;51.444;6.484;2023-02-12T04:22:07;67720.53;;;7.99;94.90
3844;BME280;1937;51.444;6.484;2023-02-12T04:24:43;67722.31;;;7.82;96.20
3844;BME280;1937;51.444;6.484;2023-02-12T04:27:19;67694.34;;;7.80;96.02
3844;BME280;1937;51.444;6.484;2023-02-12T04:29:53;67770.91;;;8.07;95.60
3844;BME280;1937;51.444;6.484;2023-02-12T04:32:27;67723.94;;;7.79;95.37
3844;BME280;1937;51.444;6.484;2023-02-12T04:35:03;67722.31;;;7.82;95.48
3844;BME280;1937;51.444;6.484;2023-02-12T04:37:38;67760.09;;;7.89;95.62
3844;BME280;1937;51.444;6.484;2023-02-12T04:40:12;67749.53;;;7.97;96.33
3844;BME280;1937;51.444;6.484;2023-02-12T04:42:44;67740.53;;;7.92;96.19
3844;BME280;1937;51.444;6.484;2023-02-12T04:45:18;67739.00;;;7.88;95.46
3844;BME280;1937;51.444;6.484;2023-02-12T04:47:49;67733.13;;;8.01;94.77
3844;BME280;1937;51.444;6.484;2023-02-12T04:50:20;67759.78;;;7.97;95.51
3844;BME280;1937;51.444;6.484;2023-02-12T04:52:48;67687.72;;;7.77;95.36
3844;BME280;1937;51.444;6.484;2023-02-12T04:55:19;67706.94;;;7.82;95.21
3844;BME280;1937;51.444;6.484;2023-02-12T04:57:47;67713.81;;;7.84;95.24
3844;BME280;1937;51.444;6.484;2023-02-12T05:00:17;67728.09;;;7.94;94.78
3844;BME280;1937;51.444;6.484;2023-02-12T05:02:46;67699.31;;;7.94;95.07
3844;BME280;1937;51.444;6.484;2023-02-12T05:05:14;67752.47;;;8.00;95.26
3844;BME280;1937;51.444;6.484;2023-02-12T05:07:43;67722.41;;;8.05;95.05
3844;BME280;1937;51.444;6.484;2023-02-12T05:10:14;67713.81;;;7.84;94.94
3844;BME280;1937;51.444;6.484;2023-02-12T05:12:42;67761.09;;;8.03;94.42
3844;BME280;1937;51.444;6.484;2023-02-12T05:15:11;67732.31;;;8.02;94.53
3844;BME280;1937;51.444;6.484;2023-02-12T05:17:40;67737.09;;;8.00;94.97
3844;BME280;1937;51.444;6.484;2023-02-12T05:20:10;67735.97;;;8.10;95.17
3844;BME280;1937;51.444;6.484;2023-02-12T05:22:38;67734.06;;;8.04;95.01
3844;BME280;1937;51.444;6.484;2023-02-12T05:25:08;67730.47;;;8.07;95.25
3844;BME280;1937;51.444;6.484;2023-02-12T05:27:37;67698.94;;;7.91;95.09
3844;BME280;1937;51.444;6.484;2023-02-12T05:30:07;67752.50;;;8.11;94.83
3844;BME280;1937;51.444;6.484;2023-02-12T05:32:39;67673.09;;;7.93;94.75
3844;BME280;1937;51.444;6.484;2023-02-12T05:35:09;67744.19;;;7.99;95.00
3844;BME280;1937;51.444;6.484;2023-02-12T05:37:37;67678.38;;;8.09;93.26
3844;BME280;1937;51.444;6.484;2023-02-12T05:40:07;67634.06;;;7.93;93.74
3844;BME280;1937;51.444;6.484;2023-02-12T05:42:37;67668.91;;;7.96;93.22
3844;BME280;1937;51.444;6.484;2023-02-12T05:45:07;67653.34;;;7.80;94.40
3844;BME280;1937;51.444;6.484;2023-02-12T05:47:38;67689.94;;;7.86;94.17
3844;BME280;1937;51.444;6.484;2023-02-12T05:50:08;67632.25;;;7.69;95.05
3844;BME280;1937;51.444;6.484;2023-02-12T05:52:37;67670.06;;;7.68;95.15
3844;BME280;1937;51.444;6.484;2023-02-12T05:55:06;67686.84;;;7.67;96.21
3844;BME280;1937;51.444;6.484;2023-02-12T05:57:34;67687.72;;;7.77;95.23
3844;BME280;1937;51.444;6.484;2023-02-12T06:00:06;67708.78;;;7.77;96.16
3844;BME280;1937;51.444;6.484;2023-02-12T06:02:34;67718.59;;;7.81;95.96
3844;BME280;1937;51.444;6.484;2023-02-12T06:05:03;67668.22;;;7.73;95.42
3844;BME280;1937;51.444;6.484;2023-02-12T06:07:33;67697.41;;;7.88;95.21
3844;BME280;1937;51.444;6.484;2023-02-12T06:10:02;67696.53;;;7.78;96.08
3844;BME280;1937;51.444;6.484;2023-02-12T06:12:30;67670.78;;;7.73;95.35
3844;BME280;1937;51.444;6.484;2023-02-12T06:14:58;67696.34;;;7.80;95.38
3844;BME280;1937;51.444;6.484;2023-02-12T06:17:28;67708.00;;;7.90;94.61
3844;BME280;1937;51.444;6.484;2023-02-12T06:19:56;67703.34;;;7.86;94.42
3844;BME280;1937;51.444;6.484;2023-02-12T06:22:26;67665.38;;;7.82;95.11
3844;BME280;1937;51.444;6.484;2023-02-12T06:24:55;67710.31;;;7.81;94.81
3844;BME280;1937;51.444;6.484;2023-02-12T06:27:23;67705.25;;;7.92;95.16
3844;BME280;1937;51.444;6.484;2023-02-12T06:29:51;67678.09;;;7.89;94.40
3844;BME280;1937;51.444;6.484;2023-02-12T06:32:19;67657.31;;;7.79;94.81
3844;BME280;1937;51.444;6.484;2023-02-12T06:34:50;67670.53;;;7.64;96.15
3844;BME280;1937;51.444;6.484;2023-02-12T06:37:18;67690.63;;;7.79;95.31
3844;BME280;1937;51.444;6.484;2023-02-12T06:39:47;67667.69;;;7.84;94.92
3844;BME280;1937;51.444;6.484;2023-02-12T06:42:15;67717.34;;;7.87;95.33
3844;BME280;1937;51.444;6.484;2023-02-12T06:44:44;67713.97;;;7.89;95.27
3844;BME280;1937;51.444;6.484;2023-02-12T06:47:14;67721.41;;;7.91;94.74
3844;BME280;1937;51.444;6.484;2023-02-12T06:49:43;67708.84;;;7.89;95.67
3844;BME280;1937;51.444;6.484;2023-02-12T06:52:13;67735.19;;;7.94;95.40
3844;BME280;1937;51.444;6.484;2023-02-12T06:54:42;67698.00;;;7.88;95.03
3844;BME280;1937;51.444;6.484;2023-02-12T06:57:10;67718.28;;;7.90;94.91
3844;BME280;1937;51.444;6.484;2023-02-12T06:59:39;67707.72;;;7.99;95.19
3844;BME280;1937;51.444;6.484;2023-02-12T07:02:07;67731.97;;;8.00;94.22
3844;BME280;1937;51.444;6.484;2023-02-12T07:04:36;67692.41;;;7.92;95.01
3844;BME280;1937;51.444;6.484;2023-02-12T07:07:05;67716.28;;;7.91;95.76
3844;BME280;1937;51.444;6.484;2023-02-12T07:09:35;67676.63;;;7.78;95.57
3844;BME280;1937;51.444;6.484;2023-02-12T07:12:04;67690.16;;;7.83;95.25
3844;BME280;1937;51.444;6.484;2023-02-12T07:14:32;67685.88;;;7.82;95.10
3844;BME280;1937;51.444;6.484;2023-02-12T07:17:01;67737.38;;;7.91;95.97
3844;BME280;1937;51.444;6.484;2023-02-12T07:19:30;67697.53;;;7.92;95.86
3844;BME280;1937;51.444;6.484;2023-02-12T07:21:58;67706.50;;;7.87;95.42
3844;BME280;1937;51.444;6.484;2023-02-12T07:24:27;67724.13;;;7.95;95.20
3844;BME280;1937;51.444;6.484;2023-02-12T07:26:56;67756.19;;;8.01;94.65
3844;BME280;1937;51.444;6.484;2023-02-12T07:29:25;67750.97;;;8.07;94.71
3844;BME280;1937;51.444;6.484;2023-02-12T07:31:53;67739.69;;;8.11;95.08
3844;BME280;1937;51.444;6.484;2023-02-12T07:34:21;67760.69;;;8.18;95.03
3844;BME280;1937;51.444;6.484;2023-02-12T07:36:49;67721.28;;;8.15;94.60
3844;BME280;1937;51.444;6.484;2023-02-12T07:39:17;67715.63;;;8.26;93.90
3844;BME280;1937;51.444;6.484;2023-02-12T07:41:46;67700.63;;;7.99;94.65
3844;BME280;1937;51.444;6.484;2023-02-12T07:44:15;67686.34;;;8.18;93.17
3844;BME280;1937;51.444;6.484;2023-02-12T07:46:46;67756.97;;;8.46;92.54
3844;BME280;1937;51.444;6.484;2023-02-12T07:49:16;67737.06;;;8.46;91.25
3844;BME280;1937;51.444;6.484;2023-02-12T07:51:45;67647.84;;;8.36;91.79
3844;BME280;1937;51.444;6.484;2023-02-12T07:54:14;67680.38;;;8.48;90.99
3844;BME280;1937;51.444;6.484;2023-02-12T07:56:44;67617.03;;;8.25;91.67
3844;BME280;1937;51.444;6.484;2023-02-12T07:59:14;67598.56;;;8.06;91.51
3844;BME280;1937;51.444;6.484;2023-02-12T08:01:44;67625.72;;;8.10;92.35
3844;BME280;1937;51.444;6.484;2023-02-12T08:04:14;67683.31;;;8.22;92.14
3844;BME280;1937;51.444;6.484;2023-02-12T08:06:45;67715.34;;;8.45;91.68
3844;BME280;1937;51.444;6.484;2023-02-12T08:09:16;67694.25;;;8.45;91.71
3844;BME280;1937;51.444;6.484;2023-02-12T08:11:45;67681.31;;;8.40;91.70
3844;BME280;1937;51.444;6.484;2023-02-12T08:14:14;67716.59;;;8.69;90.86
3844;BME280;1937;51.444;6.484;2023-02-12T08:16:44;67684.34;;;8.47;91.07
3844;BME280;1937;51.444;6.484;2023-02-12T08:19:13;67676.25;;;8.85;89.99
3844;BME280;1937;51.444;6.484;2023-02-12T08:21:42;67652.66;;;8.78;89.52
3844;BME280;1937;51.444;6.484;2023-02-12T08:24:12;67701.34;;;8.95;88.49
3844;BME280;1937;51.444;6.484;2023-02-12T08:26:42;67680.00;;;8.97;88.56
3844;BME280;1937;51.444;6.484;2023-02-12T08:29:13;67711.75;;;9.11;88.46
3844;BME280;1937;51.444;6.484;2023-02-12T08:31:45;67670.78;;;9.04;88.55
3844;BME280;1937;51.444;6.484;2023-02-12T08:34:18;67670.91;;;9.09;88.30
3844;BME280;1937;51.444;6.484;2023-02-12T08:36:48;67658.31;;;9.07;88.76
3844;BME280;1937;51.444;6.484;2023-02-12T08:39:19;67636.59;;;8.95;88.72
3844;BME280;1937;51.444;6.484;2023-02-12T08:41:48;67616.97;;;8.76;89.93
3844;BME280;1937;51.444;6.484;2023-02-12T08:44:17;67677.53;;;8.90;89.97
3844;BME280;1937;51.444;6.484;2023-02-12T08:46:49;67629.56;;;8.78;89.86
3844;BME280;1937;51.444;6.484;2023-02-12T08:49:20;67592.25;;;8.68;90.62
3844;BME280;1937;51.444;6.484;2023-02-12T08:51:53;67665.53;;;8.89;90.34
3844;BME280;1937;51.444;6.484;2023-02-12T08:54:24;67717.00;;;9.04;89.67
3844;BME280;1937;51.444;6.484;2023-02-12T08:56:56;67648.25;;;8.83;89.85
3844;BME280;1937;51.444;6.484;2023-02-12T08:59:24;67656.19;;;8.81;89.93
3844;BME280;1937;51.444;6.484;2023-02-12T09:01:55;67644.63;;;8.86;89.52
3844;BME280;1937;51.444;6.484;2023-02-12T09:04:26;67662.38;;;8.88;89.75
3844;BME280;1937;51.444;6.484;2023-02-12T09:06:56;67681.75;;;8.98;89.68
3844;BME280;1937;51.444;6.484;2023-02-12T09:09:24;67711.97;;;9.09;89.39
3844;BME280;1937;51.444;6.484;2023-02-12T09:11:52;67717.84;;;9.36;88.17
3844;BME280;1937;51.444;6.484;2023-02-12T09:14:21;67715.75;;;9.55;87.93
3844;BME280;1937;51.444;6.484;2023-02-12T09:16:51;67706.53;;;9.51;86.93
3844;BME280;1937;51.444;6.484;2023-02-12T09:19:21;67719.97;;;9.63;86.87
3844;BME280;1937;51.444;6.484;2023-02-12T09:21:52;67763.19;;;9.78;86.37
3844;BME280;1937;51.444;6.484;2023-02-12T09:24:20;67740.41;;;9.80;86.15
3844;BME280;1937;51.444;6.484;2023-02-12T09:26:48;67714.56;;;9.87;85.48
3844;BME280;1937;51.444;6.484;2023-02-12T09:29:19;67728.38;;;10.01;85.50
3844;BME280;1937;51.444;6.484;2023-02-12T09:31:47;67740.97;;;10.03;84.59
3844;BME280;1937;51.444;6.484;2023-02-12T09:34:15;67633.09;;;9.97;84.02
3844;BME280;1937;51.444;6.484;2023-02-12T09:36:45;67685.78;;;10.13;83.34
3844;BME280;1937;51.444;6.484;2023-02-12T09:39:13;67682.19;;;10.17;82.78
3844;BME280;1937;51.444;6.484;2023-02-12T09:42:06;67723.66;;;10.31;81.94
3844;BME280;1937;51.444;6.484;2023-02-12T09:44:45;67714.63;;;10.47;80.24
3844;BME280;1937;51.444;6.484;2023-02-12T09:47:22;67697.38;;;10.57;80.53
3844;BME280;1937;51.444;6.484;2023-02-12T09:50:10;67651.28;;;10.55;80.32
3844;BME280;1937;51.444;6.484;2023-02-12T09:52:42;67633.72;;;10.35;80.68
3844;BME280;1937;51.444;6.484;2023-02-12T09:55:12;67692.25;;;10.57;80.17
3844;BME280;1937;51.444;6.484;2023-02-12T09:57:42;67668.81;;;10.70;79.21
3844;BME280;1937;51.444;6.484;2023-02-12T10:00:17;67647.66;;;10.58;79.96
3844;BME280;1937;51.444;6.484;2023-02-12T10:02:45;67630.47;;;10.57;79.52
3844;BME280;1937;51.444;6.484;2023-02-12T10:05:22;67681.22;;;10.63;78.14
3844;BME280;1937;51.444;6.484;2023-02-12T10:08:03;67651.75;;;10.62;78.33
3844;BME280;1937;51.444;6.484;2023-02-12T10:10:46;67621.66;;;10.72;77.74
3844;BME280;1937;51.444;6.484;2023-02-12T10:13:32;67581.06;;;10.61;77.42
3844;BME280;1937;51.444;6.484;2023-02-12T10:16:11;67659.41;;;10.73;77.13
3844;BME280;1937;51.444;6.484;2023-02-12T10:18:53;67652.50;;;10.83;76.33
3844;BME280;1937;51.444;6.484;2023-02-12T10:21:32;67649.59;;;10.96;76.38
3844;BME280;1937;51.444;6.484;2023-02-12T10:24:32;67653.03;;;10.94;76.31
3844;BME280;1937;51.444;6.484;2023-02-12T10:27:08;67619.28;;;10.96;75.96
3844;BME280;1937;51.444;6.484;2023-02-12T10:29:39;67666.88;;;11.13;75.87
3844;BME280;1937;51.444;6.484;2023-02-12T10:32:15;67656.94;;;11.04;74.29
3844;BME280;1937;51.444;6.484;2023-02-12T10:34:48;67623.59;;;10.98;74.92
3844;BME280;1937;51.444;6.484;2023-02-12T10:37:22;67657.38;;;11.12;75.55
3844;BME280;1937;51.444;6.484;2023-02-12T10:39:56;67648.72;;;11.08;75.39
3844;BME280;1937;51.444;6.484;2023-02-12T10:42:33;67655.09;;;10.98;75.31
3844;BME280;1937;51.444;6.484;2023-02-12T10:45:03;67696.56;;;11.23;74.54
3844;BME280;1937;51.444;6.484;2023-02-12T10:47:32;67641.78;;;11.18;75.30
3844;BME280;1937;51.444;6.484;2023-02-12T10:50:07;67655.59;;;11.37;73.95
3844;BME280;1937;51.444;6.484;2023-02-12T10:52:46;67668.88;;;11.28;74.11
3844;BME280;1937;51.444;6.484;2023-02-12T10:55:27;67635.78;;;11.20;75.01
3844;BME280;1937;51.444;6.484;2023-02-12T10:57:57;67632.34;;;11.05;75.41
3844;BME280;1937;51.444;6.484;2023-02-12T11:00:30;67620.88;;;11.04;75.50
3844;BME280;1937;51.444;6.484;2023-02-12T11:03:05;67664.84;;;11.14;75.41
3844;BME280;1937;51.444;6.484;2023-02-12T11:05:45;67619.72;;;11.03;74.80
3844;BME280;1937;51.444;6.484;2023-02-12T11:08:27;67634.88;;;11.17;74.56
3844;BME280;1937;51.444;6.484;2023-02-12T11:11:04;67614.56;;;11.03;77.11
3844;BME280;1937;51.444;6.484;2023-02-12T11:13:34;67665.38;;;11.25;75.95
3844;BME280;1937;51.444;6.484;2023-02-12T11:16:03;67679.22;;;11.44;74.39
3844;BME280;1937;51.444;6.484;2023-02-12T11:18:32;67674.41;;;11.46;74.74
3844;BME280;1937;51.444;6.484;2023-02-12T11:21:06;67679.22;;;11.44;73.74
3844;BME280;1937;51.444;6.484;2023-02-12T11:23:38;67675.72;;;11.41;74.14
3844;BME280;1937;51.444;6.484;2023-02-12T11:26:20;67676.16;;;11.48;74.46
3844;BME280;1937;51.444;6.484;2023-02-12T11:28:55;67617.44;;;11.33;73.71
3844;BME280;1937;51.444;6.484;2023-02-12T11:31:25;67664.09;;;11.46;74.18
3844;BME280;1937;51.444;6.484;2023-02-12T11:34:09;67698.22;;;11.63;73.20
3844;BME280;1937;51.444;6.484;2023-02-12T11:36:43;67732.56;;;11.88;73.08
3844;BME280;1937;51.444;6.484;2023-02-12T11:39:21;67650.75;;;11.66;73.00
3844;BME280;1937;51.444;6.484;2023-02-12T11:42:02;67652.63;;;11.45;72.52
3844;BME280;1937;51.444;6.484;2023-02-12T11:44:35;67653.22;;;11.46;74.13
3844;BME280;1937;51.444;6.484;2023-02-12T11:47:07;67676.94;;;11.58;73.73
3844;BME280;1937;51.444;6.484;2023-02-12T11:49:40;67690.09;;;11.71;72.54
3844;BME280;1937;51.444;6.484;2023-02-12T11:52:19;67670.78;;;11.66;71.32
3844;BME280;1937;51.444;6.484;2023-02-12T11:54:50;67628.19;;;11.40;73.19
3844;BME280;1937;51.444;6.484;2023-02-12T11:57:45;67665.25;;;11.74;72.21
3844;BME280;1937;51.444;6.484;2023-02-12T12:00:18;67634.00;;;11.61;72.35
3844;BME280;1937;51.444;6.484;2023-02-12T12:02:52;67638.84;;;11.58;72.84
3844;BME280;1937;51.444;6.484;2023-02-12T12:05:23;67593.50;;;11.39;72.54
3844;BME280;1937;51.444;6.484;2023-02-12T12:08:01;67591.00;;;11.28;72.52
3844;BME280;1937;51.444;6.484;2023-02-12T12:10:35;67664.84;;;11.56;72.11
3844;BME280;1937;51.444;6.484;2023-02-12T12:13:13;67642.59;;;11.59;71.14
3844;BME280;1937;51.444;6.484;2023-02-12T12:15:45;67659.63;;;11.67;70.25
3844;BME280;1937;51.444;6.484;2023-02-12T12:18:36;67659.00;;;11.78;70.67
3844;BME280;1937;51.444;6.484;2023-02-12T12:21:38;67635.75;;;11.46;71.01
3844;BME280;1937;51.444;6.484;2023-02-12T12:24:12;67602.91;;;11.36;71.93
3844;BME280;1937;51.444;6.484;2023-02-12T12:26:45;67603.41;;;11.47;71.66
3844;BME280;1937;51.444;6.484;2023-02-12T12:29:21;67611.16;;;11.63;71.26
3844;BME280;1937;51.444;6.484;2023-02-12T12:31:54;67611.53;;;11.55;71.16
3844;BME280;1937;51.444;6.484;2023-02-12T12:34:26;67604.91;;;11.35;71.80
3844;BME280;1937;51.444;6.484;2023-02-12T12:37:08;67662.47;;;11.65;71.31
3844;BME280;1937;51.444;6.484;2023-02-12T12:39:52;67655.78;;;11.88;70.57
3844;BME280;1937;51.444;6.484;2023-02-12T12:48:32;67691.16;;;12.10;70.11
3844;BME280;1937;51.444;6.484;2023-02-12T12:51:11;67650.44;;;12.11;69.02
3844;BME280;1937;51.444;6.484;2023-02-12T12:53:51;67730.44;;;12.11;68.73
3844;BME280;1937;51.444;6.484;2023-02-12T12:56:32;67661.75;;;12.03;69.30
3844;BME280;1937;51.444;6.484;2023-02-12T12:59:24;67610.31;;;11.65;69.73
3844;BME280;1937;51.444;6.484;2023-02-12T13:02:12;67641.13;;;11.87;69.04
3844;BME280;1937;51.444;6.484;2023-02-12T13:07:46;67654.28;;;12.01;68.66
3844;BME280;1937;51.444;6.484;2023-02-12T13:10:27;67639.03;;;11.99;68.46
3844;BME280;1937;51.444;6.484;2023-02-12T13:13:06;67634.38;;;11.79;69.18
3844;BME280;1937;51.444;6.484;2023-02-12T13:15:40;67723.00;;;11.98;68.17
3844;BME280;1937;51.444;6.484;2023-02-12T13:18:22;67635.00;;;11.68;70.54
3844;BME280;1937;51.444;6.484;2023-02-12T13:20:58;67650.34;;;11.90;69.44
3844;BME280;1937;51.444;6.484;2023-02-12T13:23:35;67616.75;;;11.86;68.90
3844;BME280;1937;51.444;6.484;2023-02-12T13:26:14;67624.06;;;11.79;69.49
3844;BME280;1937;51.444;6.484;2023-02-12T13:28:48;67616.56;;;11.93;68.78
3844;BME280;1937;51.444;6.484;2023-02-12T13:31:21;67569.47;;;11.72;69.80
3844;BME280;1937;51.444;6.484;2023-02-12T13:33:56;67647.88;;;11.95;68.99
3844;BME280;1937;51.444;6.484;2023-02-12T13:36:26;67635.81;;;11.94;68.56
3844;BME280;1937;51.444;6.484;2023-02-12T13:38:58;67672.06;;;12.03;67.95
3844;BME280;1937;51.444;6.484;2023-02-12T13:41:31;67653.53;;;12.07;68.56
3844;BME280;1937;51.444;6.484;2023-02-12T13:44:05;67632.88;;;11.91;68.98
3844;BME280;1937;51.444;6.484;2023-02-12T13:46:43;67605.16;;;11.65;69.08
3844;BME280;1937;51.444;6.484;2023-02-12T13:49:24;67597.34;;;11.60;69.10
3844;BME280;1937;51.444;6.484;2023-02-12T13:52:01;67627.31;;;11.84;68.90
3844;BME280;1937;51.444;6.484;2023-02-12T13:54:37;67645.44;;;11.88;69.17
3844;BME280;1937;51.444;6.484;2023-02-12T13:57:11;67575.38;;;11.66;70.66
3844;BME280;1937;51.444;6.484;2023-02-12T13:59:42;67581.69;;;11.51;71.70
3844;BME280;1937;51.444;6.484;2023-02-12T14:05:35;67604.66;;;11.53;72.52
3844;BME280;1937;51.444;6.484;2023-02-12T14:08:06;67570.72;;;11.46;72.69
3844;BME280;1937;51.444;6.484;2023-02-12T14:10:38;67602.16;;;11.42;72.80
3844;BME280;1937;51.444;6.484;2023-02-12T14:13:12;67571.22;;;11.26;73.53
3844;BME280;1937;51.444;6.484;2023-02-12T14:15:44;67569.97;;;11.21;74.35